Adolphus, Kentucky
Current Conditions -  °F | °C
As of 9:53 AM on Monday 24 Nov 2014 (Local Time) from KBWG Reporting Station
Light Rain Light Rain  
Wind Chill: 53°   Ceiling: 3700
Heat Index: 53°   Visibility: 10mi
Dew Point: 43°   Wind: 15mph
Humidity: 69%   Direction: 250°WSW
Pressure: 29.71"   Gusts: 33mph
Location:  36.65°N, 86.26°W
Report Text: KBWG 241553Z AUTO 25013G29KT 10SM -RA SCT027 OVC037 12/06 A2971 RMK AO2 PK WND 25033/1501 PRESRR SLP057 P0000 T01170061
Loading
Personal Weather Stations






























Interactive Weather Map New forecast layout! Learn more

10-Day Weather Forecast

Advertisements
Track Severe Weather on mobile